Time,TemperatureF,DewpointF,PressureIn,WindDirection,WindDirectionDegrees,WindSpeedMPH,WindSpeedGustMPH,Humidity,HourlyPrecipIn,Conditions,Clouds,dailyrainin,SolarRadiationWatts/m^2,SoftwareType,DateUTC
2013-06-28 00:02:00,78.3,75.0,29.93,SW,229,0.0,4.0,90,0.00,,,0.00,0,weatherlink.com 1.10,2013-06-28 04:02:00,
2013-06-28 00:17:00,78.1,75.0,29.94,SW,229,0.0,4.0,91,0.00,,,0.00,0,weatherlink.com 1.10,2013-06-28 04:17:00,
2013-06-28 00:32:00,78.1,76.0,29.93,SW,236,1.0,7.0,92,0.00,,,0.00,0,weatherlink.com 1.10,2013-06-28 04:32:00,
2013-06-28 00:47:00,78.3,76.0,29.92,WSW,257,0.0,7.0,91,0.00,,,0.00,0,weatherlink.com 1.10,2013-06-28 04:47:00,
2013-06-28 01:02:00,78.4,76.0,29.92,WSW,238,3.0,7.0,91,0.00,,,0.00,0,weatherlink.com 1.10,2013-06-28 05:02:00,
2013-06-28 01:17:00,78.6,76.0,29.92,SW,218,2.0,7.0,91,0.00,,,0.00,0,weatherlink.com 1.10,2013-06-28 05:17:00,
2013-06-28 01:32:00,78.5,75.0,29.92,WSW,240,1.0,4.0,90,0.00,,,0.00,0,weatherlink.com 1.10,2013-06-28 05:32:00,
2013-06-28 01:47:00,78.3,75.0,29.92,WSW,240,2.0,5.0,90,0.00,,,0.00,0,weatherlink.com 1.10,2013-06-28 05:47:00,
2013-06-28 02:02:00,78.0,75.0,29.93,WSW,239,0.0,7.0,91,0.00,,,0.00,0,weatherlink.com 1.10,2013-06-28 06:02:00,
2013-06-28 02:17:00,77.8,75.0,29.93,WSW,242,4.0,7.0,92,0.00,,,0.00,0,weatherlink.com 1.10,2013-06-28 06:17:00,
2013-06-28 02:32:00,77.8,75.0,29.91,SSW,211,2.0,7.0,92,0.00,,,0.00,0,weatherlink.com 1.10,2013-06-28 06:32:00,
2013-06-28 02:47:00,77.8,75.0,29.91,SW,234,3.0,5.0,92,0.00,,,0.00,0,weatherlink.com 1.10,2013-06-28 06:47:00,
2013-06-28 03:02:00,77.9,75.0,29.92,West,277,2.0,9.0,91,0.00,,,0.00,0,weatherlink.com 1.10,2013-06-28 07:02:00,
2013-06-28 03:17:00,77.6,75.0,29.90,West,277,0.0,6.0,92,0.00,,,0.00,0,weatherlink.com 1.10,2013-06-28 07:17:00,
2013-06-28 03:32:00,77.3,75.0,29.90,West,277,0.0,4.0,92,0.00,,,0.00,0,weatherlink.com 1.10,2013-06-28 07:32:00,
2013-06-28 03:47:00,77.2,75.0,29.90,West,277,1.0,4.0,93,0.00,,,0.00,0,weatherlink.com 1.10,2013-06-28 07:47:00,
2013-06-28 04:02:00,77.0,75.0,29.90,West,277,1.0,4.0,93,0.00,,,0.00,0,weatherlink.com 1.10,2013-06-28 08:02:00,
2013-06-28 04:17:00,76.8,75.0,29.90,West,277,0.0,2.0,93,0.00,,,0.00,0,weatherlink.com 1.10,2013-06-28 08:17:00,
2013-06-28 04:32:00,76.6,75.0,29.90,West,277,2.0,7.0,94,0.00,,,0.00,0,weatherlink.com 1.10,2013-06-28 08:32:00,
2013-06-28 04:47:00,76.7,75.0,29.89,West,273,3.0,7.0,94,0.00,,,0.00,0,weatherlink.com 1.10,2013-06-28 08:47:00,
2013-06-28 05:02:00,76.7,75.0,29.89,West,267,0.0,6.0,93,0.00,,,0.00,0,weatherlink.com 1.10,2013-06-28 09:02:00,
2013-06-28 05:17:00,76.7,75.0,29.89,WSW,251,3.0,5.0,94,0.00,,,0.00,0,weatherlink.com 1.10,2013-06-28 09:17:00,
2013-06-28 05:32:00,76.7,75.0,29.89,SSW,208,5.0,7.0,93,0.00,,,0.00,0,weatherlink.com 1.10,2013-06-28 09:32:00,
2013-06-28 05:47:00,76.5,75.0,29.89,SW,214,3.0,6.0,94,0.00,,,0.00,0,weatherlink.com 1.10,2013-06-28 09:47:00,
2013-06-28 06:02:00,76.3,75.0,29.90,SW,214,0.0,5.0,94,0.00,,,0.00,0,weatherlink.com 1.10,2013-06-28 10:02:00,
2013-06-28 06:17:00,76.1,74.0,29.90,SW,214,0.0,1.0,94,0.00,,,0.00,0,weatherlink.com 1.10,2013-06-28 10:17:00,
2013-06-28 06:32:00,75.9,74.0,29.90,SW,214,0.0,4.0,95,0.00,,,0.00,16,weatherlink.com 1.10,2013-06-28 10:32:00,
2013-06-28 06:47:00,75.9,75.0,29.90,SW,214,0.0,0.0,96,0.00,,,0.00,35,weatherlink.com 1.10,2013-06-28 10:47:00,
2013-06-28 07:02:00,76.1,75.0,29.90,SW,214,3.0,4.0,95,0.00,,,0.00,54,weatherlink.com 1.10,2013-06-28 11:02:00,
2013-06-28 07:18:00,76.6,75.0,29.91,SW,222,4.0,6.0,95,0.00,,,0.00,81,weatherlink.com 1.10,2013-06-28 11:18:00,
2013-06-28 07:33:00,77.3,76.0,29.90,SSW,210,4.0,8.0,94,0.00,,,0.00,114,weatherlink.com 1.10,2013-06-28 11:33:00,
2013-06-28 07:48:00,78.1,76.0,29.90,SW,232,0.0,8.0,92,0.00,,,0.00,91,weatherlink.com 1.10,2013-06-28 11:48:00,
2013-06-28 08:03:00,78.7,76.0,29.90,SW,221,2.0,7.0,91,0.00,,,0.00,142,weatherlink.com 1.10,2013-06-28 12:03:00,
2013-06-28 08:18:00,79.6,77.0,29.90,SW,219,3.0,9.0,90,0.00,,,0.00,105,weatherlink.com 1.10,2013-06-28 12:18:00,
2013-06-28 08:33:00,80.2,76.0,29.90,SSW,196,1.0,10.0,88,0.00,,,0.00,86,weatherlink.com 1.10,2013-06-28 12:33:00,
2013-06-28 08:48:00,81.0,77.0,29.89,WSW,239,10.0,13.0,86,0.00,,,0.00,84,weatherlink.com 1.10,2013-06-28 12:48:00,
2013-06-28 09:03:00,81.9,76.0,29.89,WNW,298,3.0,17.0,83,0.00,,,0.00,104,weatherlink.com 1.10,2013-06-28 13:03:00,
2013-06-28 09:18:00,82.8,76.0,29.89,SW,222,5.0,13.0,81,0.00,,,0.00,457,weatherlink.com 1.10,2013-06-28 13:18:00,
2013-06-28 09:33:00,84.1,77.0,29.90,West,273,4.0,14.0,78,0.00,,,0.00,512,weatherlink.com 1.10,2013-06-28 13:33:00,
2013-06-28 09:48:00,84.9,77.0,29.89,SW,232,6.0,14.0,76,0.00,,,0.00,559,weatherlink.com 1.10,2013-06-28 13:48:00,
2013-06-28 10:03:00,85.5,76.0,29.89,West,267,8.0,15.0,74,0.00,,,0.00,605,weatherlink.com 1.10,2013-06-28 14:03:00,
2013-06-28 10:18:00,86.1,76.0,29.88,WNW,294,2.0,16.0,72,0.00,,,0.00,649,weatherlink.com 1.10,2013-06-28 14:18:00,
2013-06-28 10:33:00,86.4,77.0,29.88,WSW,254,12.0,14.0,73,0.00,,,0.00,722,weatherlink.com 1.10,2013-06-28 14:33:00,
2013-06-28 10:48:00,87.0,76.0,29.88,West,269,6.0,14.0,70,0.00,,,0.00,761,weatherlink.com 1.10,2013-06-28 14:48:00,
2013-06-28 11:03:00,88.5,76.0,29.88,SSW,210,6.0,13.0,66,0.00,,,0.00,786,weatherlink.com 1.10,2013-06-28 15:03:00,
2013-06-28 11:18:00,88.7,75.0,29.88,West,273,1.0,14.0,65,0.00,,,0.00,911,weatherlink.com 1.10,2013-06-28 15:18:00,
2013-06-28 11:33:00,88.6,76.0,29.87,West,276,10.0,14.0,67,0.00,,,0.00,919,weatherlink.com 1.10,2013-06-28 15:33:00,
2013-06-28 11:48:00,88.9,76.0,29.86,SSW,200,5.0,11.0,65,0.00,,,0.00,925,weatherlink.com 1.10,2013-06-28 15:48:00,
2013-06-28 12:04:00,89.8,74.0,29.85,WNW,292,5.0,13.0,60,0.00,,,0.00,900,weatherlink.com 1.10,2013-06-28 16:04:00,
2013-06-28 12:19:00,90.7,74.0,29.86,WSW,239,3.0,15.0,59,0.00,,,0.00,972,weatherlink.com 1.10,2013-06-28 16:19:00,
2013-06-28 12:34:00,90.6,75.0,29.86,NNW,330,4.0,15.0,60,0.00,,,0.00,965,weatherlink.com 1.10,2013-06-28 16:34:00,
2013-06-28 12:49:00,91.5,75.0,29.86,NW,323,4.0,12.0,58,0.00,,,0.00,905,weatherlink.com 1.10,2013-06-28 16:49:00,
2013-06-28 13:04:00,91.9,72.0,29.86,West,271,12.0,19.0,53,0.00,,,0.00,438,weatherlink.com 1.10,2013-06-28 17:04:00,
2013-06-28 13:19:00,89.2,72.0,29.85,WNW,293,4.0,16.0,58,0.00,,,0.00,752,weatherlink.com 1.10,2013-06-28 17:19:00,
2013-06-28 13:34:00,88.5,74.0,29.85,West,279,6.0,15.0,62,0.00,,,0.00,1020,weatherlink.com 1.10,2013-06-28 17:34:00,
2013-06-28 13:49:00,90.3,75.0,29.86,SSW,213,3.0,15.0,60,0.00,,,0.00,1146,weatherlink.com 1.10,2013-06-28 17:49:00,
2013-06-28 14:04:00,88.6,73.0,29.87,West,275,7.0,12.0,61,0.00,,,0.00,211,weatherlink.com 1.10,2013-06-28 18:04:00,
2013-06-28 14:19:00,85.4,72.0,29.88,South,190,5.0,22.0,65,0.00,,,0.00,98,weatherlink.com 1.10,2013-06-28 18:19:00,
2013-06-28 14:34:00,83.0,72.0,29.88,NNW,334,4.0,13.0,70,0.00,,,0.00,54,weatherlink.com 1.10,2013-06-28 18:34:00,
2013-06-28 14:49:00,81.8,72.0,29.88,WSW,250,1.0,14.0,71,0.00,,,0.00,46,weatherlink.com 1.10,2013-06-28 18:49:00,
2013-06-28 15:04:00,80.5,71.0,29.89,WNW,293,9.0,13.0,73,0.00,,,0.00,47,weatherlink.com 1.10,2013-06-28 19:04:00,
2013-06-28 15:19:00,80.0,71.0,29.88,WNW,300,5.0,8.0,75,0.00,,,0.00,65,weatherlink.com 1.10,2013-06-28 19:19:00,
2013-06-28 15:34:00,79.7,72.0,29.86,NW,317,5.0,16.0,77,0.00,,,0.00,98,weatherlink.com 1.10,2013-06-28 19:34:00,
2013-06-28 15:49:00,79.8,73.0,29.86,NW,314,1.0,9.0,79,0.00,,,0.00,199,weatherlink.com 1.10,2013-06-28 19:49:00,
2013-06-28 16:04:00,80.5,73.0,29.85,WNW,285,8.0,8.0,79,0.00,,,0.00,274,weatherlink.com 1.10,2013-06-28 20:04:00,
2013-06-28 16:19:00,81.1,73.0,29.84,SW,217,2.0,10.0,75,0.00,,,0.00,302,weatherlink.com 1.10,2013-06-28 20:19:00,
2013-06-28 16:34:00,81.5,73.0,29.83,WNW,291,3.0,9.0,75,0.00,,,0.00,350,weatherlink.com 1.10,2013-06-28 20:34:00,
2013-06-28 16:49:00,82.3,72.0,29.82,West,260,4.0,13.0,71,0.00,,,0.00,547,weatherlink.com 1.10,2013-06-28 20:49:00,
2013-06-28 17:04:00,82.7,72.0,29.82,WSW,239,2.0,9.0,71,0.00,,,0.00,269,weatherlink.com 1.10,2013-06-28 21:04:00,
2013-06-28 17:19:00,82.2,72.0,29.82,WNW,291,1.0,13.0,70,0.00,,,0.00,243,weatherlink.com 1.10,2013-06-28 21:19:00,
2013-06-28 17:34:00,82.3,71.0,29.81,SSW,207,4.0,10.0,69,0.00,,,0.00,288,weatherlink.com 1.10,2013-06-28 21:34:00,
2013-06-28 17:49:00,82.9,72.0,29.80,WNW,292,3.0,7.0,69,0.00,,,0.00,323,weatherlink.com 1.10,2013-06-28 21:49:00,
2013-06-28 18:04:00,83.2,72.0,29.80,NW,313,0.0,8.0,69,0.00,,,0.00,155,weatherlink.com 1.10,2013-06-28 22:04:00,
2013-06-28 18:19:00,82.0,72.0,29.79,West,269,4.0,11.0,71,0.00,,,0.00,95,weatherlink.com 1.10,2013-06-28 22:19:00,
2013-06-28 18:34:00,81.3,72.0,29.79,SSW,200,7.0,7.0,73,0.00,,,0.00,86,weatherlink.com 1.10,2013-06-28 22:34:00,
2013-06-28 18:49:00,80.8,72.0,29.80,SW,232,0.0,9.0,74,0.00,,,0.00,91,weatherlink.com 1.10,2013-06-28 22:49:00,
2013-06-28 19:04:00,80.9,72.0,29.81,WSW,258,2.0,7.0,73,0.00,,,0.00,105,weatherlink.com 1.10,2013-06-28 23:04:00,
2013-06-28 19:19:00,81.1,72.0,29.83,SW,234,0.0,5.0,74,0.00,,,0.00,93,weatherlink.com 1.10,2013-06-28 23:19:00,
2013-06-28 19:34:00,81.0,72.0,29.84,West,262,3.0,8.0,75,0.00,,,0.00,60,weatherlink.com 1.10,2013-06-28 23:34:00,
2013-06-28 19:49:00,80.6,72.0,29.84,SW,218,3.0,7.0,75,0.00,,,0.00,30,weatherlink.com 1.10,2013-06-28 23:49:00,
2013-06-28 20:04:00,80.2,72.0,29.83,WSW,250,1.0,7.0,77,0.00,,,0.00,16,weatherlink.com 1.10,2013-06-29 00:04:00,
2013-06-28 20:19:00,79.8,72.0,29.84,WSW,249,1.0,5.0,77,0.00,,,0.00,5,weatherlink.com 1.10,2013-06-29 00:19:00,
2013-06-28 20:34:00,79.5,72.0,29.84,WSW,239,0.0,5.0,78,0.00,,,0.00,0,weatherlink.com 1.10,2013-06-29 00:34:00,
2013-06-28 20:49:00,79.2,72.0,29.84,SW,229,1.0,6.0,78,0.00,,,0.00,0,weatherlink.com 1.10,2013-06-29 00:49:00,
2013-06-28 21:04:00,78.9,72.0,29.84,SW,229,0.0,4.0,79,0.00,,,0.00,0,weatherlink.com 1.10,2013-06-29 01:04:00,
2013-06-28 21:19:00,78.6,72.0,29.82,SW,234,0.0,4.0,80,0.00,,,0.00,0,weatherlink.com 1.10,2013-06-29 01:19:00,
2013-06-28 21:34:00,78.2,72.0,29.82,SW,234,2.0,5.0,82,0.00,,,0.00,0,weatherlink.com 1.10,2013-06-29 01:34:00,
2013-06-28 21:49:00,77.8,72.0,29.82,SW,234,0.0,3.0,82,0.00,,,0.00,0,weatherlink.com 1.10,2013-06-29 01:49:00,
2013-06-28 22:04:00,77.4,72.0,29.82,SW,234,6.0,6.0,84,0.00,,,0.00,0,weatherlink.com 1.10,2013-06-29 02:04:00,
2013-06-28 22:19:00,77.5,72.0,29.82,SW,229,0.0,6.0,84,0.00,,,0.00,0,weatherlink.com 1.10,2013-06-29 02:19:00,
2013-06-28 22:34:00,77.3,72.0,29.82,SW,229,0.0,5.0,84,0.00,,,0.00,0,weatherlink.com 1.10,2013-06-29 02:34:00,
2013-06-28 22:49:00,77.1,72.0,29.82,SW,229,0.0,6.0,84,0.00,,,0.00,0,weatherlink.com 1.10,2013-06-29 02:49:00,
2013-06-28 23:04:00,77.0,72.0,29.83,SW,229,2.0,4.0,84,0.00,,,0.00,0,weatherlink.com 1.10,2013-06-29 03:04:00,
2013-06-28 23:19:00,77.1,72.0,29.82,SW,223,2.0,7.0,84,0.00,,,0.00,0,weatherlink.com 1.10,2013-06-29 03:19:00,
2013-06-28 23:34:00,77.1,72.0,29.82,SW,215,0.0,7.0,85,0.00,,,0.00,0,weatherlink.com 1.10,2013-06-29 03:34:00,
2013-06-28 23:49:00,77.2,73.0,29.81,SW,216,4.0,8.0,86,0.00,,,0.00,0,weatherlink.com 1.10,2013-06-29 03:49:00,